Time;durP1;ratioP1;P1;durP2;ratioP2;P2;SDS_P1;SDS_P2;PMS_P1;PMS_P2;Temp;Humidity;BMP_temperature;BMP_pressure;BME280_temperature;BME280_humidity;BME280_pressure;Samples;Min_cycle;Max_cycle;Signal;HPM_P1;HPM_P2
2024/01/05 00:01:54;;;;;;;5.35;2.65;;;4.20;99.90;;;;;;5088743;28;20037;-84
2024/01/05 00:04:20;;;;;;;8.63;2.72;;;4.20;99.90;;;;;;5070919;28;20093;-84
2024/01/05 00:06:46;;;;;;;2.65;1.92;;;4.20;99.90;;;;;;5088598;28;20429;-84
2024/01/05 00:09:12;;;;;;;5.20;2.30;;;4.20;99.90;;;;;;5071608;28;20043;-84
2024/01/05 00:11:37;;;;;;;5.35;3.17;;;4.20;99.90;;;;;;5054897;28;20084;-84
2024/01/05 00:14:03;;;;;;;8.15;3.88;;;4.20;99.90;;;;;;5071134;28;20090;-84
2024/01/05 00:16:29;;;;;;;5.63;3.40;;;4.10;99.90;;;;;;5054425;28;20033;-84
2024/01/05 00:18:55;;;;;;;10.80;2.53;;;4.20;99.90;;;;;;5087658;28;20036;-84
2024/01/05 00:21:26;;;;;;;18.92;3.67;;;4.10;99.90;;;;;;5037794;28;20036;-84
2024/01/05 00:23:54;;;;;;;4.05;2.13;;;4.10;99.90;;;;;;5069123;28;20037;-84
2024/01/05 00:26:20;;;;;;;6.68;4.13;;;4.10;99.90;;;;;;5038200;28;20341;-84
2024/01/05 00:28:48;;;;;;;2.80;1.63;;;4.10;99.90;;;;;;5037738;28;20043;-84
2024/01/05 00:31:15;;;;;;;5.90;3.72;;;4.10;99.90;;;;;;5037852;28;20071;-84
2024/01/05 00:33:41;;;;;;;14.55;3.72;;;4.10;99.90;;;;;;5053867;28;20486;-84
2024/01/05 00:36:11;;;;;;;8.02;3.35;;;4.10;99.90;;;;;;5037877;28;20042;-84
2024/01/05 00:38:38;;;;;;;7.75;3.13;;;4.10;99.90;;;;;;5037790;28;20105;-84
2024/01/05 00:41:17;;;;;;;5.20;2.55;;;4.00;99.90;;;;;;5037871;28;20052;-84
2024/01/05 00:43:49;;;;;;;5.88;3.17;;;4.10;99.90;;;;;;5038262;28;20038;-84
2024/01/05 00:46:15;;;;;;;8.70;3.25;;;4.10;99.90;;;;;;5054055;28;20033;-84
2024/01/05 00:48:41;;;;;;;5.60;2.95;;;4.00;99.90;;;;;;5056949;28;20044;-84
2024/01/05 00:51:07;;;;;;;6.00;3.75;;;4.10;99.90;;;;;;5090801;28;20386;-84
2024/01/05 00:53:32;;;;;;;10.75;3.67;;;4.00;99.90;;;;;;5072622;28;20036;-84
2024/01/05 00:55:58;;;;;;;9.15;3.13;;;4.00;99.90;;;;;;5053395;28;20077;-84
2024/01/05 00:58:24;;;;;;;6.13;2.28;;;4.00;99.90;;;;;;5070639;28;20048;-84
2024/01/05 01:00:50;;;;;;;5.10;2.85;;;4.00;99.90;;;;;;5087154;28;20123;-84
2024/01/05 01:03:15;;;;;;;6.07;2.40;;;4.00;99.90;;;;;;5037256;28;20072;-84
2024/01/05 01:05:41;;;;;;;6.03;2.92;;;4.00;99.90;;;;;;5070398;28;20055;-84
2024/01/05 01:08:07;;;;;;;6.68;2.67;;;4.00;99.90;;;;;;5053517;28;20111;-84
2024/01/05 01:10:33;;;;;;;6.18;1.40;;;4.00;99.90;;;;;;5037552;28;20044;-84
2024/01/05 01:13:01;;;;;;;6.78;2.60;;;4.00;99.90;;;;;;5069749;28;20043;-84
2024/01/05 01:15:27;;;;;;;5.88;2.85;;;4.00;99.90;;;;;;5053178;28;20071;-84
2024/01/05 01:17:52;;;;;;;4.28;2.35;;;4.00;99.90;;;;;;5086832;28;20567;-84
2024/01/05 01:20:18;;;;;;;6.97;3.20;;;4.00;99.90;;;;;;5070011;28;20363;-84
2024/01/05 01:22:45;;;;;;;7.38;3.72;;;4.00;99.90;;;;;;5070278;28;20655;-84
2024/01/05 01:25:10;;;;;;;8.25;3.63;;;3.90;99.90;;;;;;5051512;28;20052;-84
2024/01/05 01:27:36;;;;;;;6.40;2.63;;;3.90;99.90;;;;;;5086675;28;20101;-84
2024/01/05 01:30:02;;;;;;;7.25;2.42;;;3.90;99.90;;;;;;5053220;28;20115;-84
2024/01/05 01:32:28;;;;;;;7.57;2.53;;;3.90;99.90;;;;;;5068645;28;20040;-84
2024/01/05 01:34:54;;;;;;;4.70;2.40;;;3.90;99.90;;;;;;5069858;28;20036;-84
2024/01/05 01:37:19;;;;;;;7.28;2.35;;;3.90;99.90;;;;;;5056793;28;20036;-84
2024/01/05 01:39:45;;;;;;;7.85;3.53;;;4.00;99.90;;;;;;5072986;28;20036;-84
2024/01/05 01:42:17;;;;;;;4.72;2.78;;;3.90;99.90;;;;;;5083988;28;20063;-84
2024/01/05 01:44:43;;;;;;;6.57;2.92;;;3.90;99.90;;;;;;5086847;28;20062;-84
2024/01/05 01:47:09;;;;;;;5.70;1.90;;;3.90;99.90;;;;;;5086785;28;20040;-84
2024/01/05 01:49:35;;;;;;;6.28;2.67;;;3.90;99.90;;;;;;5095819;28;20040;-84
2024/01/05 01:52:01;;;;;;;11.50;3.28;;;3.90;99.90;;;;;;5072710;28;20040;-84
2024/01/05 01:54:28;;;;;;;1.80;0.95;;;3.90;99.90;;;;;;5072682;28;20051;-84
2024/01/05 01:56:54;;;;;;;7.05;2.40;;;3.90;99.90;;;;;;5073040;28;20494;-84
2024/01/05 01:59:20;;;;;;;7.65;2.53;;;3.90;99.90;;;;;;5053385;28;20526;-84
2024/01/05 02:01:46;;;;;;;8.90;1.67;;;3.90;99.90;;;;;;5097882;28;20066;-84
2024/01/05 02:04:15;;;;;;;3.17;1.70;;;3.90;99.90;;;;;;5045482;28;20059;-84
2024/01/05 02:06:45;;;;;;;5.00;2.17;;;3.90;99.90;;;;;;5063101;28;20044;-84
2024/01/05 02:09:10;;;;;;;;;;;3.90;99.90;;;;;;5073540;28;20541;-84
2024/01/05 02:11:37;;;;;;;1.92;1.00;;;3.90;99.90;;;;;;5063371;28;19923;-84
2024/01/05 02:14:03;;;;;;;4.72;2.08;;;3.90;99.90;;;;;;5052693;28;20040;-84
2024/01/05 02:16:29;;;;;;;3.85;2.30;;;3.90;99.90;;;;;;5086466;28;20119;-84
2024/01/05 02:18:57;;;;;;;2.50;1.50;;;3.90;99.90;;;;;;5069107;28;20112;-84
2024/01/05 02:21:30;;;;;;;4.45;2.53;;;3.90;99.90;;;;;;5065225;28;20036;-84
2024/01/05 02:23:56;;;;;;;4.05;2.28;;;3.90;99.90;;;;;;5048575;28;20033;-84
2024/01/05 02:26:22;;;;;;;0.40;0.35;;;3.90;99.90;;;;;;5052828;28;20068;-84
2024/01/05 02:28:48;;;;;;;4.00;2.15;;;3.90;99.90;;;;;;5063756;28;20111;-84
2024/01/05 02:31:14;;;;;;;4.88;2.42;;;3.90;99.90;;;;;;5071974;28;20137;-84
2024/01/05 02:33:40;;;;;;;8.27;3.33;;;3.90;99.90;;;;;;5055781;28;20505;-84
2024/01/05 02:36:05;;;;;;;4.15;2.38;;;3.90;99.90;;;;;;5071579;28;20055;-84
2024/01/05 02:38:31;;;;;;;4.35;2.95;;;3.80;99.90;;;;;;5052658;28;20036;-84
2024/01/05 02:41:05;;;;;;;3.70;2.22;;;3.90;99.90;;;;;;5086008;28;20483;-84
2024/01/05 02:43:37;;;;;;;4.57;2.10;;;3.90;99.90;;;;;;5037415;28;20044;-84
2024/01/05 02:46:03;;;;;;;4.28;1.92;;;3.90;99.90;;;;;;5068917;28;20119;-84
2024/01/05 02:48:29;;;;;;;4.75;2.67;;;3.90;99.90;;;;;;5049649;28;20045;-84
2024/01/05 02:50:55;;;;;;;4.80;2.58;;;3.90;99.90;;;;;;5072716;28;20090;-84
2024/01/05 02:53:20;;;;;;;2.97;2.05;;;3.90;99.90;;;;;;5090012;28;20115;-84
2024/01/05 02:55:46;;;;;;;7.32;2.45;;;3.90;99.90;;;;;;5036425;28;20047;-84
2024/01/05 02:58:12;;;;;;;5.50;2.72;;;3.90;99.90;;;;;;5054542;28;20047;-84
2024/01/05 03:00:38;;;;;;;3.58;1.95;;;3.90;99.90;;;;;;5050518;28;20545;-84
2024/01/05 03:03:04;;;;;;;4.10;2.55;;;3.90;99.90;;;;;;5055948;28;21577;-84
2024/01/05 03:05:30;;;;;;;6.22;2.75;;;3.90;99.90;;;;;;5052576;28;20517;-84
2024/01/05 03:07:56;;;;;;;3.63;2.17;;;4.00;99.90;;;;;;5053899;28;20036;-84
2024/01/05 03:10:22;;;;;;;1.85;1.10;;;3.90;99.90;;;;;;5052698;28;20472;-84
2024/01/05 03:12:48;;;;;;;3.65;2.13;;;3.90;99.90;;;;;;5052003;28;20175;-84
2024/01/05 03:15:16;;;;;;;3.65;2.20;;;3.90;99.90;;;;;;5036938;28;20048;-84
2024/01/05 03:17:41;;;;;;;4.75;2.28;;;3.90;99.90;;;;;;5054648;28;20514;-84
2024/01/05 03:20:09;;;;;;;2.72;1.25;;;3.90;99.90;;;;;;5084797;28;20068;-83
2024/01/05 03:22:35;;;;;;;5.32;2.63;;;3.90;99.90;;;;;;5055348;28;20121;-83
2024/01/05 03:25:02;;;;;;;4.20;2.85;;;3.90;99.90;;;;;;5025348;28;20037;-83
2024/01/05 03:27:28;;;;;;;3.45;2.05;;;3.90;99.90;;;;;;5034872;28;20087;-83
2024/01/05 03:29:56;;;;;;;4.80;2.85;;;3.90;99.90;;;;;;5046138;28;20080;-83
2024/01/05 03:32:21;;;;;;;5.25;2.38;;;4.00;99.90;;;;;;5037698;28;20068;-84
2024/01/05 03:34:47;;;;;;;5.95;2.72;;;4.00;99.90;;;;;;5050619;28;20080;-84
2024/01/05 03:37:13;;;;;;;1.55;1.10;;;4.00;99.90;;;;;;5038508;28;20363;-84
2024/01/05 03:39:39;;;;;;;5.70;2.70;;;4.00;99.90;;;;;;5055189;28;20186;-84
2024/01/05 03:42:11;;;;;;;4.47;2.10;;;4.00;99.90;;;;;;5029947;28;20052;-84
2024/01/05 03:44:37;;;;;;;4.00;2.42;;;4.00;99.90;;;;;;5039863;28;20072;-84
2024/01/05 03:47:03;;;;;;;6.00;1.45;;;4.00;99.90;;;;;;5036469;28;20094;-84
2024/01/05 03:49:28;;;;;;;7.72;2.25;;;4.10;99.90;;;;;;5051703;28;20510;-84
2024/01/05 03:51:54;;;;;;;3.53;1.67;;;4.00;99.90;;;;;;5034376;28;20032;-84
2024/01/05 03:54:20;;;;;;;4.28;1.33;;;4.00;99.90;;;;;;5054625;28;20239;-84
2024/01/05 03:56:46;;;;;;;2.70;1.70;;;4.10;99.90;;;;;;5053757;28;20115;-83
2024/01/05 03:59:12;;;;;;;6.07;1.50;;;4.10;99.90;;;;;;5054910;28;20509;-84
2024/01/05 04:01:46;;;;;;;2.53;2.08;;;4.10;99.90;;;;;;5054844;28;20037;-84
2024/01/05 04:04:12;;;;;;;3.25;1.83;;;4.10;99.90;;;;;;5033641;28;20033;-84
2024/01/05 04:06:37;;;;;;;5.18;2.22;;;4.10;99.90;;;;;;5054430;28;20161;-84
2024/01/05 04:09:04;;;;;;;4.55;2.35;;;4.10;99.90;;;;;;5054390;28;20076;-84
2024/01/05 04:11:33;;;;;;;5.72;2.47;;;4.10;99.90;;;;;;5038015;28;20098;-84
2024/01/05 04:13:59;;;;;;;2.45;1.70;;;4.10;99.90;;;;;;5054791;28;20505;-84
2024/01/05 04:16:25;;;;;;;2.83;1.88;;;4.20;99.90;;;;;;5042327;28;20041;-84
2024/01/05 04:18:50;;;;;;;7.47;2.47;;;4.20;99.90;;;;;;5049434;28;20041;-83
2024/01/05 04:21:16;;;;;;;4.15;2.28;;;4.20;99.90;;;;;;5036061;28;20406;-83
2024/01/05 04:23:42;;;;;;;7.55;2.30;;;4.20;99.90;;;;;;5050447;28;20064;-83
2024/01/05 04:26:08;;;;;;;3.28;1.05;;;4.20;99.90;;;;;;5036780;28;20043;-83
2024/01/05 04:28:34;;;;;;;3.58;2.00;;;4.20;99.90;;;;;;5053852;28;20044;-83
2024/01/05 04:31:00;;;;;;;3.60;2.08;;;4.20;99.90;;;;;;5052392;28;20037;-84
2024/01/05 04:33:25;;;;;;;6.45;3.05;;;4.20;99.90;;;;;;5037585;28;20048;-84
2024/01/05 04:35:51;;;;;;;5.55;2.78;;;4.20;99.90;;;;;;5054111;28;20047;-84
2024/01/05 04:38:17;;;;;;;6.50;3.40;;;4.20;99.90;;;;;;5054021;28;20115;-84
2024/01/05 04:40:43;;;;;;;3.97;2.15;;;4.20;99.90;;;;;;5052071;28;20033;-84
2024/01/05 04:43:16;;;;;;;6.82;3.60;;;4.20;99.90;;;;;;5049383;28;20085;-84
2024/01/05 04:45:41;;;;;;;5.47;2.10;;;4.20;99.90;;;;;;5044187;28;20037;-84
2024/01/05 04:48:07;;;;;;;10.70;3.63;;;4.30;99.90;;;;;;5062860;28;20090;-84
2024/01/05 04:50:33;;;;;;;2.88;1.60;;;4.30;99.90;;;;;;5053758;28;20036;-84
2024/01/05 04:52:58;;;;;;;9.07;3.95;;;4.30;99.90;;;;;;5041893;28;20040;-84
2024/01/05 04:55:25;;;;;;;5.78;3.63;;;4.30;99.90;;;;;;5066376;28;20083;-84
2024/01/05 04:57:51;;;;;;;6.47;3.88;;;4.30;99.90;;;;;;5035519;28;20475;-84
2024/01/05 05:00:17;;;;;;;7.72;4.15;;;4.30;99.90;;;;;;5048337;28;20036;-84
2024/01/05 05:02:43;;;;;;;5.15;3.13;;;4.30;99.90;;;;;;5047185;28;20040;-84
2024/01/05 05:05:09;;;;;;;7.07;4.03;;;4.30;99.90;;;;;;5049524;28;20371;-84
2024/01/05 05:07:34;;;;;;;6.05;2.67;;;4.30;99.90;;;;;;5053440;28;20032;-84
2024/01/05 05:10:00;;;;;;;5.35;3.10;;;4.30;99.90;;;;;;5053481;28;20433;-84
2024/01/05 05:12:26;;;;;;;10.05;4.28;;;4.40;99.90;;;;;;5041196;28;20507;-84
2024/01/05 05:14:53;;;;;;;6.05;3.08;;;4.40;99.90;;;;;;5033137;28;20033;-84
2024/01/05 05:17:19;;;;;;;6.03;2.80;;;4.40;99.90;;;;;;5067998;28;20043;-84
2024/01/05 05:19:45;;;;;;;3.17;2.05;;;4.40;99.90;;;;;;5052948;28;20028;-84
2024/01/05 05:22:10;;;;;;;7.53;3.95;;;4.40;99.90;;;;;;5044672;28;20046;-83
2024/01/05 05:24:36;;;;;;;6.38;2.72;;;4.40;99.90;;;;;;5037362;28;20075;-83
2024/01/05 05:27:02;;;;;;;7.28;3.88;;;4.50;99.90;;;;;;5053473;28;20045;-84
2024/01/05 05:29:28;;;;;;;4.15;2.78;;;4.50;99.90;;;;;;5048443;28;20041;-84
2024/01/05 05:31:54;;;;;;;11.18;4.63;;;4.50;99.90;;;;;;5035993;28;20083;-84
2024/01/05 05:34:20;;;;;;;6.15;3.20;;;4.50;99.90;;;;;;5052575;28;20044;-83
2024/01/05 05:36:45;;;;;;;5.32;3.13;;;4.50;99.90;;;;;;5053060;28;20043;-84
2024/01/05 05:39:20;;;;;;;9.95;3.72;;;4.50;99.90;;;;;;5049590;28;20051;-84
2024/01/05 05:42:05;;;;;;;5.70;3.33;;;4.50;99.90;;;;;;5033605;28;20413;-84
2024/01/05 05:44:38;;;;;;;9.18;3.30;;;4.50;99.90;;;;;;5052068;28;20394;-84
2024/01/05 05:47:04;;;;;;;3.42;2.42;;;4.50;99.90;;;;;;5032598;28;20036;-84
2024/01/05 05:49:30;;;;;;;5.93;3.42;;;4.50;99.90;;;;;;5047264;28;20446;-84
2024/01/05 05:51:55;;;;;;;8.35;3.97;;;4.60;99.90;;;;;;5052904;28;20555;-84
2024/01/05 05:54:21;;;;;;;6.07;2.58;;;4.60;99.90;;;;;;5036111;28;20407;-84
2024/01/05 05:56:48;;;;;;;8.27;4.82;;;4.60;99.90;;;;;;5029633;28;20039;-84
2024/01/05 05:59:13;;;;;;;12.50;3.38;;;4.60;99.90;;;;;;5048040;28;20037;-84
2024/01/05 06:01:39;;;;;;;6.63;3.55;;;4.60;99.90;;;;;;5052683;28;20111;-84
2024/01/05 06:04:07;;;;;;;8.02;4.00;;;4.60;99.90;;;;;;5033021;28;20033;-84
2024/01/05 06:06:34;;;;;;;8.02;4.32;;;4.60;99.90;;;;;;5032336;28;20086;-84
2024/01/05 06:09:00;;;;;;;7.88;4.10;;;4.60;99.90;;;;;;5035896;28;20376;-84
2024/01/05 06:11:28;;;;;;;7.82;4.43;;;4.60;99.90;;;;;;5032165;28;20082;-84
2024/01/05 06:13:55;;;;;;;9.63;4.53;;;4.60;99.90;;;;;;5051870;28;20068;-84
2024/01/05 06:16:21;;;;;;;9.82;4.57;;;4.60;99.90;;;;;;5050973;28;20045;-84
2024/01/05 06:18:48;;;;;;;8.07;4.57;;;4.70;99.90;;;;;;5037081;28;20101;-84
2024/01/05 06:21:14;;;;;;;9.73;4.07;;;4.60;99.90;;;;;;5052588;28;20040;-84
2024/01/05 06:23:39;;;;;;;4.32;2.50;;;4.60;99.90;;;;;;5046276;28;20041;-84
2024/01/05 06:26:05;;;;;;;7.13;4.80;;;4.70;99.90;;;;;;5029353;28;20284;-84
2024/01/05 06:28:31;;;;;;;8.20;4.35;;;4.70;99.90;;;;;;5051565;28;20129;-84
2024/01/05 06:30:57;;;;;;;9.68;3.53;;;4.70;99.90;;;;;;5049164;28;20041;-83
2024/01/05 06:33:23;;;;;;;8.15;4.22;;;4.70;99.90;;;;;;5039368;28;20098;-84
2024/01/05 06:35:49;;;;;;;5.90;3.53;;;4.70;99.90;;;;;;5035726;28;20492;-84
2024/01/05 06:38:15;;;;;;;6.13;3.60;;;4.70;99.90;;;;;;5053450;28;20487;-84
2024/01/05 06:40:41;;;;;;;5.32;3.58;;;4.70;99.90;;;;;;5054361;28;20429;-84
2024/01/05 06:43:13;;;;;;;6.68;3.25;;;4.80;99.90;;;;;;5057108;28;20040;-84
2024/01/05 06:45:39;;;;;;;8.60;3.63;;;4.80;99.90;;;;;;5076016;28;20366;-83
2024/01/05 06:48:05;;;;;;;9.25;4.35;;;4.80;99.90;;;;;;5058798;28;20119;-84
2024/01/05 06:50:31;;;;;;;9.10;4.57;;;4.80;99.90;;;;;;5063639;28;20051;-84
2024/01/05 06:52:57;;;;;;;6.90;3.80;;;4.80;99.90;;;;;;5056848;28;20131;-84
2024/01/05 06:55:22;;;;;;;14.23;5.78;;;4.90;99.90;;;;;;5076607;28;20032;-84
2024/01/05 06:57:48;;;;;;;6.28;3.47;;;4.90;99.90;;;;;;5058422;28;20036;-84
2024/01/05 07:00:14;;;;;;;12.07;4.90;;;4.90;99.90;;;;;;5072995;28;20103;-84
2024/01/05 07:02:40;;;;;;;6.70;3.88;;;4.90;99.90;;;;;;5056254;28;20036;-84
2024/01/05 07:05:07;;;;;;;11.30;4.32;;;5.00;99.90;;;;;;5055665;28;20512;-84
2024/01/05 07:07:32;;;;;;;10.48;4.30;;;5.00;99.90;;;;;;5095015;28;20040;-84
2024/01/05 07:09:58;;;;;;;9.57;4.93;;;5.00;99.90;;;;;;5069727;28;20094;-84
2024/01/05 07:12:27;;;;;;;14.70;5.45;;;5.00;99.90;;;;;;5075634;28;20447;-84
2024/01/05 07:14:52;;;;;;;10.70;3.78;;;5.00;99.90;;;;;;5058809;28;20088;-84
2024/01/05 07:17:18;;;;;;;7.05;3.60;;;5.00;99.90;;;;;;5074533;28;20123;-84
2024/01/05 07:19:44;;;;;;;10.13;5.05;;;5.00;99.90;;;;;;5063647;28;20182;-84
2024/01/05 07:22:10;;;;;;;9.95;4.10;;;5.00;99.90;;;;;;5051066;28;20041;-84
2024/01/05 07:24:37;;;;;;;9.45;4.78;;;5.10;99.90;;;;;;5061097;28;20085;-84
2024/01/05 07:27:05;;;;;;;6.68;3.88;;;5.10;99.90;;;;;;5057101;28;20043;-84
2024/01/05 07:29:31;;;;;;;12.10;4.68;;;5.10;99.90;;;;;;5072901;28;20127;-84
2024/01/05 07:31:57;;;;;;;9.98;5.30;;;5.20;99.90;;;;;;5064625;28;20189;-84
2024/01/05 07:34:23;;;;;;;7.90;3.88;;;5.20;99.90;;;;;;5075158;28;20036;-84
2024/01/05 07:36:49;;;;;;;13.07;4.75;;;5.20;99.90;;;;;;5061227;28;20033;-84
2024/01/05 07:39:15;;;;;;;9.65;5.00;;;5.20;99.90;;;;;;5071982;28;20029;-84
2024/01/05 07:41:47;;;;;;;8.45;3.38;;;5.30;99.90;;;;;;5058340;28;20051;-84
2024/01/05 07:44:27;;;;;;;17.85;4.57;;;5.30;99.90;;;;;;5045338;28;20046;-85
2024/01/05 07:46:53;;;;;;;12.52;4.85;;;5.40;99.90;;;;;;5071018;28;20478;-84
2024/01/05 07:49:19;;;;;;;7.90;4.45;;;5.40;99.90;;;;;;5056802;28;20116;-85
2024/01/05 07:51:44;;;;;;;11.85;4.65;;;5.40;99.90;;;;;;5075052;28;20028;-85
2024/01/05 07:54:10;;;;;;;8.20;4.22;;;5.40;99.90;;;;;;5090205;28;20032;-85
2024/01/05 07:56:37;;;;;;;15.02;5.65;;;5.40;99.90;;;;;;5058600;28;20398;-85
2024/01/05 07:59:04;;;;;;;10.52;5.70;;;5.50;99.90;;;;;;5071084;28;20040;-85
2024/01/05 08:01:30;;;;;;;9.23;4.30;;;5.50;99.90;;;;;;5049355;28;20043;-85
2024/01/05 08:03:55;;;;;;;11.95;5.28;;;5.50;99.90;;;;;;5062067;28;20040;-84
2024/01/05 08:06:21;;;;;;;7.63;4.07;;;5.50;99.90;;;;;;5063673;28;20102;-84
2024/01/05 08:08:49;;;;;;;12.02;6.55;;;5.50;99.90;;;;;;5066387;28;20039;-84
2024/01/05 08:11:16;;;;;;;6.18;3.50;;;5.60;99.90;;;;;;5040476;28;20506;-84
2024/01/05 08:13:42;;;;;;;8.85;4.72;;;5.60;99.90;;;;;;5040941;28;20070;-84
2024/01/05 08:16:09;;;;;;;11.60;5.32;;;5.60;99.90;;;;;;5044380;28;20037;-84
2024/01/05 08:18:36;;;;;;;7.22;4.65;;;5.60;99.90;;;;;;5042892;28;20036;-84
2024/01/05 08:21:02;;;;;;;12.60;4.45;;;5.60;99.90;;;;;;5041908;28;20036;-84
2024/01/05 08:23:35;;;;;;;12.00;5.82;;;5.60;99.90;;;;;;5058354;28;20106;-84
2024/01/05 08:26:03;;;;;;;9.55;5.35;;;5.60;99.90;;;;;;5057373;28;20040;-84
2024/01/05 08:28:30;;;;;;;11.57;4.35;;;5.60;99.90;;;;;;5065098;28;20040;-84
2024/01/05 08:30:56;;;;;;;10.60;4.82;;;5.60;99.90;;;;;;5062884;28;20033;-84
2024/01/05 08:33:22;;;;;;;8.65;4.57;;;5.70;99.90;;;;;;5043780;28;20499;-84
2024/01/05 08:35:48;;;;;;;11.75;4.32;;;5.60;99.90;;;;;;5052396;28;20509;-84
2024/01/05 08:38:14;;;;;;;11.93;4.82;;;5.70;99.90;;;;;;5073071;28;20043;-84
2024/01/05 08:40:40;;;;;;;8.13;4.60;;;5.70;99.90;;;;;;5041852;28;20123;-84
2024/01/05 08:43:13;;;;;;;12.13;6.05;;;5.70;99.90;;;;;;5041692;28;20053;-84
2024/01/05 08:45:39;;;;;;;7.63;4.03;;;5.70;99.90;;;;;;5031272;28;20047;-84
2024/01/05 08:48:05;;;;;;;8.60;4.35;;;5.70;99.90;;;;;;5047055;28;20037;-84
2024/01/05 08:50:31;;;;;;;12.40;5.63;;;5.70;99.90;;;;;;5050876;28;20044;-84
2024/01/05 08:52:57;;;;;;;9.20;4.70;;;5.70;99.90;;;;;;5036686;28;20047;-84
2024/01/05 08:55:23;;;;;;;11.05;5.00;;;5.80;99.90;;;;;;5053062;28;20340;-84
2024/01/05 08:57:49;;;;;;;12.98;5.50;;;5.80;99.90;;;;;;5053544;28;20110;-84
2024/01/05 09:00:15;;;;;;;12.48;3.97;;;5.80;99.90;;;;;;5028888;28;20044;-84
2024/01/05 09:02:41;;;;;;;9.45;4.80;;;5.80;99.90;;;;;;5048119;28;20135;-84
2024/01/05 09:05:07;;;;;;;9.20;4.82;;;5.90;99.90;;;;;;5024963;28;20115;-84
2024/01/05 09:07:33;;;;;;;8.93;4.88;;;5.80;99.90;;;;;;5053259;28;20494;-84
2024/01/05 09:10:00;;;;;;;10.80;4.45;;;5.90;99.90;;;;;;5049355;28;20044;-84
2024/01/05 09:12:27;;;;;;;10.05;3.45;;;5.90;99.90;;;;;;5036597;28;20083;-84
2024/01/05 09:14:53;;;;;;;9.52;4.47;;;6.00;99.90;;;;;;5035939;28;20041;-84
2024/01/05 09:17:19;;;;;;;7.38;4.10;;;6.00;99.90;;;;;;5053343;28;20486;-84
2024/01/05 09:19:45;;;;;;;7.65;3.30;;;6.00;99.90;;;;;;5053838;28;20040;-84
2024/01/05 09:22:18;;;;;;;10.57;3.35;;;6.10;99.90;;;;;;5041325;28;20120;-84
2024/01/05 09:24:44;;;;;;;9.50;4.50;;;6.10;99.90;;;;;;5032827;28;20189;-84
2024/01/05 09:27:10;;;;;;;9.50;3.53;;;6.20;99.90;;;;;;5063457;28;20525;-84
2024/01/05 09:29:36;;;;;;;11.15;4.40;;;6.20;99.90;;;;;;5050830;28;20044;-84
2024/01/05 09:32:02;;;;;;;6.97;3.40;;;6.30;99.90;;;;;;5048760;28;20167;-84
2024/01/05 09:34:28;;;;;;;8.77;2.97;;;6.40;99.90;;;;;;5015794;28;20116;-84
2024/01/05 09:36:54;;;;;;;7.25;3.10;;;6.40;99.90;;;;;;5039974;28;20207;-84
2024/01/05 09:39:19;;;;;;;12.10;3.53;;;6.50;99.90;;;;;;5047849;28;20125;-83
2024/01/05 09:41:49;;;;;;;6.22;3.40;;;6.50;99.90;;;;;;5037186;27;20032;-84
2024/01/05 09:44:31;;;;;;;8.10;3.75;;;6.50;99.90;;;;;;5078117;28;20081;-84
2024/01/05 09:46:57;;;;;;;8.93;4.13;;;6.60;99.90;;;;;;5050381;28;20035;-84
2024/01/05 09:49:22;;;;;;;9.68;2.67;;;6.60;99.90;;;;;;5064328;28;20536;-84
2024/01/05 09:51:51;;;;;;;9.40;3.22;;;6.60;99.90;;;;;;5055642;28;20036;-84
2024/01/05 09:54:17;;;;;;;9.20;2.97;;;6.60;99.90;;;;;;5069754;28;20178;-84
2024/01/05 09:56:46;;;;;;;7.13;3.15;;;6.60;99.90;;;;;;5043102;28;20119;-84
2024/01/05 09:59:12;;;;;;;3.50;2.20;;;6.60;99.90;;;;;;5064193;28;20424;-84
2024/01/05 10:01:41;;;;;;;6.38;2.72;;;6.60;99.90;;;;;;5067844;28;20043;-84
2024/01/05 10:04:09;;;;;;;8.82;3.30;;;6.60;99.90;;;;;;5064641;28;20029;-84
2024/01/05 10:06:35;;;;;;;6.18;3.45;;;6.60;99.90;;;;;;5052126;28;20046;-84
2024/01/05 10:09:01;;;;;;;8.02;3.28;;;6.60;99.90;;;;;;5086237;28;20036;-84
2024/01/05 10:11:34;;;;;;;5.72;2.75;;;6.60;99.90;;;;;;5051906;28;20032;-84
2024/01/05 10:14:08;;;;;;;3.35;2.05;;;6.70;99.90;;;;;;5038404;28;20088;-84
2024/01/05 10:16:37;;;;;;;5.25;2.00;;;6.70;99.90;;;;;;5051718;28;20045;-84
2024/01/05 10:19:16;;;;;;;6.35;2.40;;;6.70;99.90;;;;;;5086349;28;20036;-84
2024/01/05 10:21:47;;;;;;;6.03;3.20;;;6.70;99.90;;;;;;5038374;28;20448;-84
2024/01/05 10:24:23;;;;;;;3.53;1.75;;;6.80;99.90;;;;;;5040937;28;20506;-84
2024/01/05 10:27:04;;;;;;;3.47;1.85;;;6.80;99.90;;;;;;5051043;28;20043;-84
2024/01/05 10:29:31;;;;;;;4.35;2.42;;;6.80;99.90;;;;;;5053521;28;20087;-84
2024/01/05 10:32:11;;;;;;;3.30;1.67;;;6.80;99.90;;;;;;5068860;28;20036;-84
2024/01/05 10:34:37;;;;;;;5.10;1.73;;;6.90;99.90;;;;;;5067664;28;20094;-84
2024/01/05 10:37:07;;;;;;;2.83;1.58;;;6.90;99.90;;;;;;5051995;28;20398;-84
2024/01/05 10:39:33;;;;;;;;;;;6.90;99.90;;;;;;5053150;28;20047;-84
2024/01/05 10:42:27;;;;;;;4.72;1.17;;;6.90;99.90;;;;;;5037050;27;20003;-84
2024/01/05 10:45:07;;;;;;;4.32;1.13;;;6.90;99.90;;;;;;5077403;28;20052;-84
2024/01/05 10:47:34;;;;;;;1.90;1.02;;;6.90;99.90;;;;;;5035998;28;20405;-84
2024/01/05 10:50:00;;;;;;;6.60;1.48;;;6.90;99.90;;;;;;5064888;28;20371;-84
2024/01/05 10:52:30;;;;;;;4.00;1.17;;;6.90;99.90;;;;;;5047845;28;20410;-84
2024/01/05 10:55:02;;;;;;;3.38;1.45;;;6.90;99.90;;;;;;5048366;28;20167;-84
2024/01/05 10:57:29;;;;;;;4.05;1.88;;;6.90;99.90;;;;;;5062625;28;20120;-84
2024/01/05 10:59:56;;;;;;;4.57;2.38;;;6.90;99.90;;;;;;5050921;28;20036;-84
2024/01/05 11:02:40;;;;;;;2.53;1.30;;;6.90;99.90;;;;;;5071632;28;20085;-84
2024/01/05 11:05:08;;;;;;;2.92;1.70;;;6.90;99.90;;;;;;5044417;28;20063;-84
2024/01/05 11:07:38;;;;;;;3.60;1.38;;;6.90;99.90;;;;;;5041384;28;20478;-84
2024/01/05 11:10:23;;;;;;;3.03;1.77;;;7.00;99.90;;;;;;5042194;28;20032;-84
2024/01/05 11:13:26;;;;;;;2.47;1.08;;;6.90;99.90;;;;;;5058490;28;20571;-83
2024/01/05 11:16:07;;;;;;;0.52;0.52;;;6.90;99.90;;;;;;5039189;28;20504;-84
2024/01/05 11:18:39;;;;;;;4.88;0.68;;;6.90;99.90;;;;;;5081526;28;20039;-84
2024/01/05 11:21:13;;;;;;;5.90;0.70;;;6.90;99.90;;;;;;5039299;28;20047;-84
2024/01/05 11:23:41;;;;;;;4.32;0.40;;;6.90;99.90;;;;;;5038441;28;20033;-84
2024/01/05 11:26:25;;;;;;;0.45;0.40;;;6.90;99.90;;;;;;5034391;28;20033;-84
2024/01/05 11:28:51;;;;;;;0.57;0.40;;;6.90;99.90;;;;;;5049018;28;20394;-84
2024/01/05 11:31:45;;;;;;;0.45;0.30;;;6.80;99.90;;;;;;5050282;28;20044;-84
2024/01/05 11:34:31;;;;;;;0.32;0.32;;;6.80;99.90;;;;;;5049234;28;20055;-84
2024/01/05 11:36:57;;;;;;;0.10;0.10;;;6.90;99.90;;;;;;5034086;28;20041;-84
2024/01/05 11:39:46;;;;;;;0.20;0.20;;;6.90;99.90;;;;;;5033751;28;20036;-84
2024/01/05 11:42:31;;;;;;;0.15;0.15;;;6.90;99.90;;;;;;5063827;27;20114;-84
2024/01/05 11:44:59;;;;;;;0.45;0.40;;;6.90;99.90;;;;;;5045615;28;20041;-83
2024/01/05 11:47:44;;;;;;;3.72;0.40;;;6.90;99.90;;;;;;5030644;28;20044;-84
2024/01/05 11:50:31;;;;;;;0.13;0.13;;;6.90;99.90;;;;;;5031418;28;20167;-84
2024/01/05 11:53:15;;;;;;;0.73;0.32;;;6.80;99.90;;;;;;5046522;28;20041;-84
2024/01/05 11:55:48;;;;;;;0.57;0.40;;;6.80;99.90;;;;;;5045689;28;20136;-84
2024/01/05 11:58:17;;;;;;;0.63;0.52;;;6.80;99.90;;;;;;5030417;28;20043;-84
2024/01/05 12:00:46;;;;;;;0.30;0.30;;;6.80;99.90;;;;;;5013526;28;20040;-84
2024/01/05 12:03:13;;;;;;;0.32;0.20;;;6.80;99.90;;;;;;5031236;28;20037;-83
2024/01/05 12:05:38;;;;;;;0.70;0.28;;;6.80;99.90;;;;;;5013638;28;20115;-83
2024/01/05 12:08:11;;;;;;;0.45;0.30;;;6.80;99.90;;;;;;5014237;28;20033;-83
2024/01/05 12:10:39;;;;;;;2.38;0.32;;;6.70;99.90;;;;;;5013014;28;20048;-86
2024/01/05 12:13:05;;;;;;;0.52;0.32;;;6.70;99.90;;;;;;5013912;28;20037;-84
2024/01/05 12:15:32;;;;;;;1.38;0.50;;;6.70;99.90;;;;;;5030368;28;20037;-84
2024/01/05 12:18:11;;;;;;;1.67;0.77;;;6.70;99.90;;;;;;5028669;28;20037;-84
2024/01/05 12:20:37;;;;;;;1.40;0.40;;;6.70;99.90;;;;;;5062576;28;20037;-84
2024/01/05 12:23:03;;;;;;;0.70;0.40;;;6.70;99.90;;;;;;5029963;28;20037;-84
2024/01/05 12:25:30;;;;;;;0.57;0.30;;;6.80;99.90;;;;;;5029741;28;20056;-84
2024/01/05 12:27:58;;;;;;;0.22;0.20;;;6.70;99.90;;;;;;5029819;28;20051;-84
2024/01/05 12:30:24;;;;;;;1.48;0.77;;;6.70;99.90;;;;;;5028738;28;20045;-84
2024/01/05 12:32:50;;;;;;;2.25;0.43;;;6.70;99.90;;;;;;5012677;28;20036;-84
2024/01/05 12:35:16;;;;;;;0.60;0.40;;;6.70;99.90;;;;;;5030013;28;20045;-84
2024/01/05 12:37:57;;;;;;;4.80;0.68;;;6.80;99.90;;;;;;5046256;28;20037;-84
2024/01/05 12:40:26;;;;;;;0.65;0.38;;;6.70;99.90;;;;;;5028992;28;20058;-84
2024/01/05 12:42:53;;;;;;;0.63;0.40;;;6.70;99.90;;;;;;5038400;28;20099;-84
2024/01/05 12:45:32;;;;;;;0.52;0.30;;;6.70;99.90;;;;;;5048590;28;20047;-84
2024/01/05 12:48:09;;;;;;;0.30;0.30;;;6.70;99.90;;;;;;5032350;28;20629;-84
2024/01/05 12:50:35;;;;;;;0.30;0.20;;;6.60;99.90;;;;;;5032569;28;20040;-84
2024/01/05 12:53:01;;;;;;;0.25;0.20;;;6.60;99.90;;;;;;5048692;28;20024;-83
2024/01/05 12:55:28;;;;;;;0.10;0.10;;;6.50;99.90;;;;;;5032869;28;20394;-83
2024/01/05 12:58:00;;;;;;;0.20;0.20;;;6.50;99.90;;;;;;5049776;28;20043;-83
2024/01/05 13:00:26;;;;;;;0.15;0.10;;;6.50;99.90;;;;;;5048673;28;20068;-83